Time;durP1;ratioP1;P1;durP2;ratioP2;P2;SDS_P1;SDS_P2;PMS_P1;PMS_P2;Temp;Humidity;BMP_temperature;BMP_pressure;BME280_temperature;BME280_humidity;BME280_pressure;Samples;Min_cycle;Max_cycle;Signal;HPM_P1;HPM_P2
2022/08/02 00:02:19;;;;;;;4.93;2.00;;;;;;;15.66;100.00;101876.84;5112645;27;20055;-58
2022/08/02 00:04:46;;;;;;;6.03;1.75;;;;;;;15.60;100.00;101877.44;5099254;27;20050;-60
2022/08/02 00:07:13;;;;;;;2.78;1.60;;;;;;;15.58;100.00;101885.53;5107300;27;20047;-60
2022/08/02 00:09:40;;;;;;;3.60;1.35;;;;;;;15.56;100.00;101882.22;5108303;27;20055;-60
2022/08/02 00:12:07;;;;;;;4.43;1.70;;;;;;;15.50;100.00;101866.13;5102877;27;20427;-62
2022/08/02 00:14:35;;;;;;;5.18;1.98;;;;;;;15.49;100.00;101875.06;5101149;27;20043;-60
2022/08/02 00:17:03;;;;;;;4.53;1.47;;;;;;;15.50;100.00;101868.75;5095020;27;20054;-60
2022/08/02 00:19:29;;;;;;;3.92;1.60;;;;;;;15.51;100.00;101878.38;5103429;27;20279;-60
2022/08/02 00:21:56;;;;;;;3.35;1.45;;;;;;;15.54;100.00;101875.41;5104388;27;20055;-60
2022/08/02 00:24:22;;;;;;;4.43;1.73;;;;;;;15.55;100.00;101874.44;5110308;27;20454;-60
2022/08/02 00:26:56;;;;;;;4.82;1.60;;;;;;;15.56;100.00;101876.94;5082492;28;20074;-59
2022/08/02 00:29:23;;;;;;;4.03;1.52;;;;;;;15.60;100.00;101872.13;5094688;27;20065;-61
2022/08/02 00:31:49;;;;;;;2.53;1.30;;;;;;;15.58;100.00;101874.97;5111976;27;20271;-60
2022/08/02 00:34:15;;;;;;;4.28;1.60;;;;;;;15.58;100.00;101884.69;5090674;28;20588;-62
2022/08/02 00:36:55;;;;;;;4.53;1.48;;;;;;;15.59;100.00;101884.53;5100928;27;20108;-60
2022/08/02 00:39:21;;;;;;;5.15;1.48;;;;;;;15.51;100.00;101881.84;5110216;27;20055;-60
2022/08/02 00:42:01;;;;;;;3.20;1.60;;;;;;;15.50;100.00;101880.16;5103943;27;20566;-60
2022/08/02 00:44:27;;;;;;;4.45;1.73;;;;;;;15.45;100.00;101871.88;5097098;28;20053;-61
2022/08/02 00:46:53;;;;;;;4.22;1.50;;;;;;;15.40;100.00;101864.38;5090228;27;20058;-60
2022/08/02 00:49:20;;;;;;;3.15;1.60;;;;;;;15.41;100.00;101859.94;5108313;27;20061;-60
2022/08/02 00:51:47;;;;;;;4.10;1.58;;;;;;;15.38;100.00;101850.50;5091916;28;20539;-60
2022/08/02 00:54:13;;;;;;;6.90;1.65;;;;;;;15.38;100.00;101858.41;5112988;27;20535;-61
2022/08/02 00:56:40;;;;;;;5.13;1.95;;;;;;;15.38;100.00;101865.53;5094442;27;20097;-61
2022/08/02 00:59:16;;;;;;;2.53;1.52;;;;;;;15.37;100.00;101856.78;5101454;27;20051;-60
2022/08/02 01:01:42;;;;;;;4.40;1.55;;;;;;;15.38;100.00;101857.59;5097776;28;20822;-61
2022/08/02 01:04:26;;;;;;;5.20;1.50;;;;;;;15.35;100.00;101856.09;5091827;27;20083;-58
2022/08/02 01:07:05;;;;;;;2.97;1.50;;;;;;;15.34;100.00;101859.72;5107531;27;20047;-60
2022/08/02 01:09:43;;;;;;;2.85;1.63;;;;;;;15.29;100.00;101861.16;5096392;27;20139;-60
2022/08/02 01:12:10;;;;;;;4.80;1.50;;;;;;;15.26;100.00;101861.47;5107139;28;20145;-60
2022/08/02 01:14:42;;;;;;;2.30;1.50;;;;;;;15.20;100.00;101870.84;5100669;27;20103;-60
2022/08/02 01:17:22;;;;;;;6.25;1.80;;;;;;;15.15;100.00;101855.44;5113053;27;20053;-61
2022/08/02 01:20:10;;;;;;;2.85;1.40;;;;;;;15.12;100.00;101865.47;5095933;28;20056;-60
2022/08/02 01:22:39;;;;;;;4.50;1.60;;;;;;;15.04;100.00;101860.94;5101510;28;20051;-61
2022/08/02 01:25:46;;;;;;;5.00;1.85;;;;;;;14.99;100.00;101848.19;5118565;27;20054;-63
2022/08/02 01:28:18;;;;;;;2.55;1.48;;;;;;;14.99;100.00;101849.97;5091576;28;20047;-60
2022/08/02 01:30:49;;;;;;;5.60;1.88;;;;;;;14.97;100.00;101847.47;5091064;28;20051;-62
2022/08/02 01:33:19;;;;;;;4.47;1.98;;;;;;;14.95;100.00;101848.63;5097773;28;20132;-60
2022/08/02 01:35:52;;;;;;;4.22;1.85;;;;;;;14.96;100.00;101851.13;5118626;28;20058;-59
2022/08/02 01:38:31;;;;;;;3.90;1.90;;;;;;;15.00;100.00;101846.38;5094772;27;20055;-61
2022/08/02 01:41:01;;;;;;;6.97;2.10;;;;;;;15.01;100.00;101845.38;5109655;27;20048;-61
2022/08/02 01:43:30;;;;;;;4.55;1.92;;;;;;;14.98;100.00;101843.88;5097910;27;20051;-60
2022/08/02 01:45:58;;;;;;;4.03;2.28;;;;;;;14.97;100.00;101836.91;5103975;28;20047;-61
2022/08/02 01:48:25;;;;;;;;;;;;;;;14.95;100.00;101830.13;5104458;27;20047;-61
2022/08/02 01:50:53;;;;;;;7.05;1.77;;;;;;;14.91;100.00;101829.59;5095125;28;20259;-61
2022/08/02 01:53:21;;;;;;;3.72;1.83;;;;;;;14.89;100.00;101834.19;5108199;27;20051;-61
2022/08/02 01:55:49;;;;;;;4.10;2.20;;;;;;;14.88;100.00;101836.97;5105330;27;20047;-59
2022/08/02 01:58:28;;;;;;;2.80;1.70;;;;;;;14.86;100.00;101829.22;5119873;27;20530;-59
2022/08/02 02:00:57;;;;;;;5.45;2.15;;;;;;;14.77;100.00;101815.09;5105935;27;20513;-61
2022/08/02 02:03:25;;;;;;;4.18;1.88;;;;;;;14.79;100.00;101828.16;5117999;27;20057;-61
2022/08/02 02:05:55;;;;;;;3.00;1.77;;;;;;;14.78;100.00;101818.59;5113626;27;20481;-61
2022/08/02 02:08:29;;;;;;;6.90;2.60;;;;;;;14.77;100.00;101823.03;5097900;27;20553;-61
2022/08/02 02:10:57;;;;;;;6.25;2.22;;;;;;;14.73;100.00;101821.66;5113295;27;20051;-61
2022/08/02 02:13:44;;;;;;;7.35;2.10;;;;;;;14.69;100.00;101816.84;5101892;27;20050;-60
2022/08/02 02:16:12;;;;;;;5.47;2.30;;;;;;;14.72;100.00;101819.16;5116625;27;20135;-60
2022/08/02 02:18:40;;;;;;;;;;;;;;;14.71;100.00;101820.16;5102744;27;20047;-60
2022/08/02 02:21:06;;;;;;;3.63;2.20;;;;;;;14.68;100.00;101812.53;5112968;27;19924;-61
2022/08/02 02:23:33;;;;;;;4.60;2.30;;;;;;;14.63;100.00;101810.34;5096826;27;20058;-61
2022/08/02 02:26:04;;;;;;;4.47;2.00;;;;;;;14.60;100.00;101806.19;5104502;27;20056;-60
2022/08/02 02:28:33;;;;;;;7.22;2.40;;;;;;;14.59;100.00;101801.06;5118495;27;20078;-61
2022/08/02 02:31:06;;;;;;;6.57;2.25;;;;;;;14.56;100.00;101811.88;5105537;27;20756;-61
2022/08/02 02:33:36;;;;;;;4.65;2.42;;;;;;;14.51;100.00;101796.47;5111250;27;20047;-60
2022/08/02 02:36:04;;;;;;;5.63;2.08;;;;;;;14.48;100.00;101802.03;5102208;27;20047;-60
2022/08/02 02:38:31;;;;;;;5.80;2.40;;;;;;;14.43;100.00;101799.03;5108237;27;20500;-60
2022/08/02 02:41:01;;;;;;;5.03;2.35;;;;;;;14.38;100.00;101796.81;5097857;27;20069;-60
2022/08/02 02:43:31;;;;;;;8.63;2.70;;;;;;;14.39;100.00;101800.31;5113398;27;20051;-61
2022/08/02 02:45:59;;;;;;;5.68;2.30;;;;;;;14.39;100.00;101795.03;5108250;27;20043;-61
2022/08/02 02:48:26;;;;;;;;;;;;;;;14.43;100.00;101791.94;5095692;27;20055;-61
2022/08/02 02:50:54;;;;;;;6.15;2.67;;;;;;;14.43;100.00;101793.75;5102509;27;20041;-61
2022/08/02 02:53:21;;;;;;;5.95;2.50;;;;;;;14.46;100.00;101790.81;5102597;27;20532;-61
2022/08/02 02:55:48;;;;;;;4.07;2.45;;;;;;;14.45;100.00;101786.53;5112158;27;20043;-59
2022/08/02 02:58:29;;;;;;;7.88;3.20;;;;;;;14.50;100.00;101786.06;5109900;27;20055;-61
2022/08/02 03:03:43;;;;;;;10.45;3.80;;;;;;;14.46;100.00;101772.31;5104517;27;20053;-61
2022/08/02 03:06:10;;;;;;;6.70;3.45;;;;;;;14.51;100.00;101778.00;5097137;27;20418;-59
2022/08/02 03:08:41;;;;;;;6.78;3.38;;;;;;;14.54;100.00;101771.59;5115614;27;20058;-61
2022/08/02 03:11:09;;;;;;;9.73;3.75;;;;;;;14.54;100.00;101774.22;5114351;27;20067;-60
2022/08/02 03:13:36;;;;;;;7.80;3.60;;;;;;;14.56;100.00;101782.81;5117405;27;20081;-61
2022/08/02 03:16:03;;;;;;;5.77;3.40;;;;;;;14.53;100.00;101781.31;5093846;27;20507;-60
2022/08/02 03:18:38;;;;;;;6.13;3.58;;;;;;;14.54;100.00;101784.78;5097903;28;20283;-60
2022/08/02 03:21:08;;;;;;;8.05;3.50;;;;;;;14.51;100.00;101791.19;5113932;27;20058;-61
2022/08/02 03:23:35;;;;;;;10.30;4.93;;;;;;;14.47;100.00;101783.75;5102487;27;20047;-59
2022/08/02 03:26:01;;;;;;;6.65;3.58;;;;;;;14.47;100.00;101789.84;5108989;27;20055;-58
2022/08/02 03:28:28;;;;;;;11.20;4.43;;;;;;;14.41;100.00;101788.63;5102882;27;20550;-61
2022/08/02 03:30:54;;;;;;;8.07;3.53;;;;;;;14.40;100.00;101792.22;5107256;27;20047;-58
2022/08/02 03:33:22;;;;;;;8.55;3.90;;;;;;;14.43;100.00;101791.13;5093068;27;20996;-60
2022/08/02 03:35:51;;;;;;;7.97;3.80;;;;;;;14.44;100.00;101788.34;5110833;27;20047;-60
2022/08/02 03:38:20;;;;;;;11.55;4.57;;;;;;;14.46;100.00;101777.59;5101634;27;20394;-60
2022/08/02 03:40:47;;;;;;;12.27;4.15;;;;;;;14.46;100.00;101777.59;5075351;28;20455;-60
2022/08/02 03:43:14;;;;;;;8.35;4.47;;;;;;;14.49;100.00;101768.59;5098937;27;20253;-59
2022/08/02 03:45:43;;;;;;;9.20;4.50;;;;;;;14.47;100.00;101768.72;5092118;27;20070;-60
2022/08/02 03:48:17;;;;;;;8.07;4.28;;;;;;;14.47;100.00;101765.25;5112405;27;20051;-60
2022/08/02 03:51:01;;;;;;;6.35;4.03;;;;;;;14.53;100.00;101767.31;5105771;27;20411;-62
2022/08/02 03:53:27;;;;;;;9.25;4.75;;;;;;;14.54;100.00;101774.22;5108624;27;20051;-61
2022/08/02 03:55:54;;;;;;;9.00;4.53;;;;;;;14.59;100.00;101766.72;5101138;27;20048;-60
2022/08/02 03:58:23;;;;;;;7.75;4.00;;;;;;;14.68;100.00;101776.41;5096871;27;20047;-60
2022/08/02 04:00:55;;;;;;;11.70;4.68;;;;;;;14.71;100.00;101772.63;5105468;27;20043;-60
2022/08/02 04:03:22;;;;;;;10.23;4.40;;;;;;;14.75;100.00;101766.88;5113992;27;20050;-59
2022/08/02 04:05:49;;;;;;;9.70;4.78;;;;;;;14.79;100.00;101770.88;5111256;27;20043;-61
2022/08/02 04:08:30;;;;;;;10.40;4.07;;;;;;;14.80;100.00;101775.19;5111131;27;20511;-60
2022/08/02 04:13:48;;;;;;;10.15;4.18;;;;;;;14.86;100.00;101757.91;5094338;27;20074;-61
2022/08/02 04:16:19;;;;;;;8.63;4.05;;;;;;;14.93;100.00;101756.31;5102155;27;20521;-60
2022/08/02 04:18:54;;;;;;;8.27;3.80;;;;;;;15.01;100.00;101756.41;5101385;28;20058;-59
2022/08/02 04:21:24;;;;;;;12.63;4.07;;;;;;;15.07;100.00;101762.03;5094205;27;20413;-59
2022/08/02 04:23:52;;;;;;;7.90;4.03;;;;;;;15.08;100.00;101756.59;5115951;27;20057;-60
2022/08/02 04:26:20;;;;;;;8.27;3.72;;;;;;;15.14;100.00;101755.16;5103787;27;20058;-61
2022/08/02 04:28:54;;;;;;;5.70;3.63;;;;;;;15.15;100.00;101760.31;5112153;27;20079;-59
2022/08/02 04:31:22;;;;;;;10.88;4.25;;;;;;;15.19;100.00;101755.50;5100193;27;20055;-61
2022/08/02 04:33:49;;;;;;;8.25;3.75;;;;;;;15.19;100.00;101752.88;5109984;27;20241;-60
2022/08/02 04:36:16;;;;;;;8.25;3.75;;;;;;;15.20;100.00;101759.81;5115889;27;20493;-60
2022/08/02 04:38:57;;;;;;;12.93;4.72;;;;;;;15.19;100.00;101766.09;5090869;28;20047;-60
2022/08/02 04:41:36;;;;;;;9.02;3.90;;;;;;;15.20;100.00;101763.28;5104103;27;20738;-59
2022/08/02 04:44:06;;;;;;;7.60;3.80;;;;;;;15.20;100.00;101773.03;5107147;27;20395;-61
2022/08/02 04:46:35;;;;;;;8.52;4.22;;;;;;;15.22;100.00;101763.97;5111006;27;20069;-61
2022/08/02 04:49:01;;;;;;;;;;;;;;;15.26;100.00;101764.50;5094127;27;20047;-61
2022/08/02 04:51:37;;;;;;;7.57;3.50;;;;;;;15.27;100.00;101766.16;5100004;27;19938;-61
2022/08/02 04:54:05;;;;;;;10.52;4.00;;;;;;;15.23;100.00;101760.34;5096819;27;20055;-60
2022/08/02 04:56:37;;;;;;;8.70;3.80;;;;;;;15.20;100.00;101760.66;5102843;27;20050;-60
2022/08/02 04:59:04;;;;;;;7.57;3.88;;;;;;;15.21;100.00;101753.53;5103981;27;20047;-60
2022/08/02 05:01:31;;;;;;;6.80;3.70;;;;;;;15.25;100.00;101756.72;5110487;27;20062;-60
2022/08/02 05:03:57;;;;;;;8.50;3.70;;;;;;;15.22;100.00;101758.69;5104094;28;20043;-60
2022/08/02 05:06:24;;;;;;;12.15;4.05;;;;;;;15.18;100.00;101756.50;5104841;27;20519;-59
2022/08/02 05:08:50;;;;;;;10.07;4.40;;;;;;;15.26;100.00;101759.22;5083207;28;20326;-59
2022/08/02 05:11:18;;;;;;;11.32;4.35;;;;;;;15.26;100.00;101761.84;5110296;27;20047;-60
2022/08/02 05:13:45;;;;;;;6.90;4.32;;;;;;;15.30;100.00;101765.84;5095057;27;20063;-60
2022/08/02 05:16:25;;;;;;;8.63;4.22;;;;;;;15.35;100.00;101758.28;5102044;28;20051;-61
2022/08/02 05:18:57;;;;;;;8.68;4.35;;;;;;;15.39;100.00;101749.06;5092741;28;20613;-59
2022/08/02 05:21:24;;;;;;;11.15;4.18;;;;;;;15.42;100.00;101751.38;5099386;28;20511;-62
2022/08/02 05:23:50;;;;;;;11.18;4.00;;;;;;;15.46;100.00;101754.53;5095595;28;20047;-60
2022/08/02 05:26:17;;;;;;;9.15;4.35;;;;;;;15.51;100.00;101754.09;5101125;28;20528;-61
2022/08/02 05:28:43;;;;;;;14.13;4.05;;;;;;;15.56;100.00;101750.00;5080568;28;20696;-61
2022/08/02 05:31:10;;;;;;;10.35;4.55;;;;;;;15.61;100.00;101746.88;5103535;28;20379;-61
2022/08/02 05:33:39;;;;;;;10.63;4.55;;;;;;;15.66;100.00;101744.59;5115643;28;20047;-61
2022/08/02 05:36:08;;;;;;;11.85;3.97;;;;;;;15.66;100.00;101751.69;5092073;28;20464;-61
2022/08/02 05:38:34;;;;;;;6.60;3.90;;;;;;;15.74;100.00;101743.81;5106724;28;20074;-60
2022/08/02 05:41:02;;;;;;;10.80;4.63;;;;;;;15.79;100.00;101750.28;5096561;27;20047;-60
2022/08/02 05:43:29;;;;;;;13.52;4.95;;;;;;;15.81;100.00;101745.69;5101494;27;20055;-60
2022/08/02 05:45:56;;;;;;;10.43;4.20;;;;;;;15.89;100.00;101744.88;5104269;27;20143;-61
2022/08/02 05:48:22;;;;;;;8.82;4.55;;;;;;;15.96;100.00;101742.44;5097579;27;20271;-59
2022/08/02 05:51:04;;;;;;;15.05;4.57;;;;;;;15.99;100.00;101736.81;5108220;27;20280;-61
2022/08/02 05:53:44;;;;;;;13.35;5.35;;;;;;;16.07;100.00;101739.50;5101709;27;20054;-61
2022/08/02 05:56:22;;;;;;;14.13;3.95;;;;;;;16.13;100.00;101732.72;5105717;27;20039;-61
2022/08/02 05:58:59;;;;;;;16.90;4.43;;;;;;;16.21;100.00;101746.84;5092709;28;20055;-60
2022/08/02 06:01:39;;;;;;;8.52;3.95;;;;;;;16.27;100.00;101737.44;5116517;28;20138;-61
2022/08/02 06:04:08;;;;;;;11.18;4.18;;;;;;;16.30;100.00;101739.72;5101555;28;20085;-61
2022/08/02 06:06:36;;;;;;;9.40;3.85;;;;;;;16.41;100.00;101744.72;5102625;28;20043;-61
2022/08/02 06:09:08;;;;;;;8.32;3.60;;;;;;;16.51;100.00;101741.13;5106146;28;20043;-61
2022/08/02 06:11:37;;;;;;;11.30;3.65;;;;;;;16.60;100.00;101742.75;5104109;28;20096;-61
2022/08/02 06:14:05;;;;;;;10.85;4.10;;;;;;;16.67;100.00;101746.44;5104155;28;20089;-61
2022/08/02 06:16:35;;;;;;;9.55;3.92;;;;;;;16.76;100.00;101750.75;5101036;28;20129;-59
2022/08/02 06:19:10;;;;;;;9.20;4.05;;;;;;;16.90;100.00;101751.13;5103389;28;20134;-61
2022/08/02 06:21:39;;;;;;;9.45;3.97;;;;;;;17.06;100.00;101750.28;5109516;28;20047;-61
2022/08/02 06:24:25;;;;;;;10.13;3.85;;;;;;;17.13;100.00;101754.75;5103652;28;20051;-61
2022/08/02 06:26:55;;;;;;;9.57;3.80;;;;;;;17.28;100.00;101746.13;5100970;27;20229;-61
2022/08/02 06:29:23;;;;;;;11.00;3.70;;;;;;;17.40;100.00;101742.13;5107802;27;20051;-63
2022/08/02 06:31:52;;;;;;;10.27;3.67;;;;;;;17.52;100.00;101731.97;5102357;27;20233;-61
2022/08/02 06:34:18;;;;;;;12.43;4.07;;;;;;;17.61;100.00;101730.97;5099233;27;20048;-61
2022/08/02 06:36:53;;;;;;;8.02;3.50;;;;;;;17.66;100.00;101730.44;5107895;27;20134;-61
2022/08/02 06:39:29;;;;;;;8.43;3.53;;;;;;;17.73;100.00;101736.72;5084849;27;20055;-60
2022/08/02 06:42:02;;;;;;;8.82;3.80;;;;;;;17.76;100.00;101739.88;5111719;27;20337;-61
2022/08/02 06:44:28;;;;;;;9.10;3.63;;;;;;;17.82;100.00;101741.00;5101734;27;20052;-61
2022/08/02 06:47:15;;;;;;;11.43;3.85;;;;;;;17.87;100.00;101725.41;5096192;27;20151;-61
2022/08/02 06:49:42;;;;;;;8.77;3.75;;;;;;;17.93;100.00;101730.03;5103734;28;20052;-61
2022/08/02 06:52:19;;;;;;;9.50;3.40;;;;;;;18.01;100.00;101723.84;5112904;27;20069;-61
2022/08/02 06:54:54;;;;;;;8.65;3.90;;;;;;;18.07;100.00;101722.34;5104641;28;20283;-61
2022/08/02 06:57:20;;;;;;;10.38;4.03;;;;;;;18.11;100.00;101731.59;5113052;27;20055;-61
2022/08/02 06:59:47;;;;;;;12.55;4.60;;;;;;;18.16;100.00;101724.78;5098815;28;20055;-61
2022/08/02 07:02:13;;;;;;;10.25;4.68;;;;;;;18.26;100.00;101718.44;5090830;27;20054;-59
2022/08/02 07:04:40;;;;;;;8.73;4.18;;;;;;;18.33;100.00;101717.56;5108296;27;20047;-60
2022/08/02 07:07:06;;;;;;;6.95;3.92;;;;;;;18.42;100.00;101710.34;5115490;27;20051;-60
2022/08/02 07:09:32;;;;;;;8.77;3.72;;;;;;;18.50;100.00;101715.63;5103937;27;20060;-60
2022/08/02 07:11:59;;;;;;;9.05;4.47;;;;;;;18.55;100.00;101715.91;5119264;27;20454;-60
2022/08/02 07:14:25;;;;;;;10.30;4.40;;;;;;;18.64;100.00;101714.03;5105615;27;20093;-60
2022/08/02 07:16:52;;;;;;;9.10;4.15;;;;;;;18.73;100.00;101704.97;5097717;28;20457;-58
2022/08/02 07:19:18;;;;;;;10.85;5.15;;;;;;;18.84;100.00;101702.94;5102358;27;20077;-60
2022/08/02 07:21:45;;;;;;;6.88;3.97;;;;;;;18.94;100.00;101703.50;5110345;27;20158;-59
2022/08/02 07:24:26;;;;;;;8.73;3.83;;;;;;;19.09;100.00;101692.88;5104902;27;20059;-60
2022/08/02 07:26:52;;;;;;;10.70;4.95;;;;;;;19.19;100.00;101692.63;5097469;27;20047;-62
2022/08/02 07:29:37;;;;;;;10.43;4.35;;;;;;;19.29;100.00;101693.19;5091867;27;20053;-59
2022/08/02 07:32:12;;;;;;;11.95;3.88;;;;;;;19.38;100.00;101688.59;5112240;27;20072;-61
2022/08/02 07:34:39;;;;;;;10.30;4.33;;;;;;;19.51;100.00;101692.25;5114254;27;20052;-61
2022/08/02 07:37:08;;;;;;;8.85;4.10;;;;;;;19.64;100.00;101688.13;5105593;27;20043;-61
2022/08/02 07:39:45;;;;;;;7.18;4.38;;;;;;;19.77;100.00;101698.16;5108352;27;20104;-60
2022/08/02 07:42:14;;;;;;;6.63;4.05;;;;;;;19.89;100.00;101691.31;5091204;27;20503;-60
2022/08/02 07:44:40;;;;;;;7.38;3.58;;;;;;;20.03;100.00;101698.47;5106426;27;20055;-60
2022/08/02 07:47:06;;;;;;;8.10;4.15;;;;;;;20.12;100.00;101688.50;5104983;27;20077;-61
2022/08/02 07:49:34;;;;;;;7.25;3.60;;;;;;;20.28;100.00;101688.25;5118086;27;20055;-60
2022/08/02 07:52:02;;;;;;;7.72;4.60;;;;;;;20.37;100.00;101670.34;5120743;27;20104;-61
2022/08/02 07:54:28;;;;;;;8.63;4.65;;;;;;;20.50;100.00;101672.28;5089021;27;20052;-61
2022/08/02 07:56:55;;;;;;;8.25;4.35;;;;;;;20.59;100.00;101681.81;5095364;28;20718;-61
2022/08/02 07:59:24;;;;;;;8.77;5.05;;;;;;;20.68;100.00;101679.84;5098566;28;20048;-61
2022/08/02 08:01:50;;;;;;;11.60;5.38;;;;;;;20.73;100.00;101672.91;5102550;27;20043;-61
2022/08/02 08:04:17;;;;;;;9.18;5.05;;;;;;;20.86;100.00;101674.06;5117803;27;20381;-61
2022/08/02 08:06:48;;;;;;;10.07;5.10;;;;;;;20.96;100.00;101671.06;5109055;27;20480;-61
2022/08/02 08:09:14;;;;;;;10.55;5.40;;;;;;;21.05;100.00;101681.38;5100939;27;20039;-61
2022/08/02 08:11:41;;;;;;;10.75;6.68;;;;;;;21.06;100.00;101671.53;5110835;27;20148;-61
2022/08/02 08:14:07;;;;;;;10.40;6.55;;;;;;;21.08;100.00;101672.97;5118755;27;20052;-60
2022/08/02 08:16:40;;;;;;;10.55;6.70;;;;;;;21.12;100.00;101668.88;5098852;27;20051;-61
2022/08/02 08:19:06;;;;;;;8.88;6.25;;;;;;;21.22;100.00;101665.88;5105625;27;20047;-62
2022/08/02 08:21:34;;;;;;;10.23;6.40;;;;;;;21.30;100.00;101668.38;5111228;27;20051;-62
2022/08/02 08:24:00;;;;;;;10.80;6.60;;;;;;;21.39;100.00;101666.38;5095664;27;20043;-62
2022/08/02 08:26:27;;;;;;;9.93;7.30;;;;;;;21.52;100.00;101668.31;5099040;28;20502;-62
2022/08/02 08:28:53;;;;;;;11.00;6.50;;;;;;;21.72;100.00;101663.88;5099829;27;20087;-61
2022/08/02 08:31:20;;;;;;;10.13;6.00;;;;;;;21.94;99.75;101671.75;5108239;27;20279;-61
2022/08/02 08:33:46;;;;;;;11.00;6.75;;;;;;;22.15;99.64;101662.78;5100342;28;20055;-61
2022/08/02 08:36:15;;;;;;;12.40;7.00;;;;;;;22.41;100.00;101670.03;5087424;28;20043;-61
2022/08/02 08:38:41;;;;;;;9.05;6.63;;;;;;;22.67;99.44;101663.03;5102188;27;20049;-62
2022/08/02 08:41:08;;;;;;;15.13;6.55;;;;;;;23.01;99.37;101653.13;5101168;27;20054;-61
2022/08/02 08:43:35;;;;;;;11.63;7.15;;;;;;;23.36;97.33;101660.88;5108017;27;20047;-61
2022/08/02 08:46:03;;;;;;;12.70;7.43;;;;;;;23.58;92.91;101646.19;5108378;27;20040;-60
2022/08/02 08:48:31;;;;;;;8.40;6.70;;;;;;;23.62;93.96;101654.59;5106202;27;20066;-61
2022/08/02 08:51:12;;;;;;;10.13;6.35;;;;;;;23.73;92.32;101653.94;5108167;27;20067;-61
2022/08/02 08:53:41;;;;;;;9.55;7.13;;;;;;;23.82;88.09;101647.31;5092920;27;20047;-61
2022/08/02 08:56:10;;;;;;;10.18;6.60;;;;;;;23.97;88.88;101652.41;5109055;27;20048;-61
2022/08/02 08:58:42;;;;;;;10.73;6.05;;;;;;;24.15;88.69;101650.81;5106246;27;20047;-61
2022/08/02 09:01:09;;;;;;;12.60;6.13;;;;;;;24.27;85.03;101646.44;5107203;27;20070;-61
2022/08/02 09:03:35;;;;;;;11.50;6.40;;;;;;;24.52;85.36;101656.34;5103214;27;20054;-61
2022/08/02 09:06:02;;;;;;;8.20;5.10;;;;;;;24.53;85.07;101650.78;5117529;27;20054;-61
2022/08/02 09:08:31;;;;;;;8.85;4.65;;;;;;;24.60;83.37;101659.59;5106466;27;20132;-60
2022/08/02 09:10:57;;;;;;;5.70;4.00;;;;;;;24.65;82.71;101657.06;5105132;27;20469;-61
2022/08/02 09:13:28;;;;;;;9.18;4.80;;;;;;;24.56;80.05;101655.72;5095186;27;20057;-61
2022/08/02 09:16:11;;;;;;;8.23;4.10;;;;;;;24.83;80.53;101656.28;5105075;27;20040;-61
2022/08/02 09:18:43;;;;;;;7.82;3.58;;;;;;;24.95;78.55;101660.91;5100545;28;20556;-61
2022/08/02 09:21:10;;;;;;;7.82;3.90;;;;;;;25.15;78.22;101652.66;5092650;28;20532;-60
2022/08/02 09:23:56;;;;;;;4.13;3.20;;;;;;;25.25;73.53;101658.38;5106620;28;20047;-61
2022/08/02 09:26:23;;;;;;;4.38;3.00;;;;;;;25.13;73.24;101660.94;5095190;28;20039;-63
2022/08/02 09:28:57;;;;;;;9.23;3.70;;;;;;;25.23;73.29;101655.09;5100781;28;20043;-63
2022/08/02 09:31:24;;;;;;;6.20;3.25;;;;;;;25.02;69.53;101648.25;5100050;28;20070;-61
2022/08/02 09:33:53;;;;;;;4.05;2.08;;;;;;;25.29;71.07;101648.81;5095981;28;20047;-60
2022/08/02 09:36:21;;;;;;;5.80;2.00;;;;;;;25.48;70.04;101648.78;5099844;28;20462;-59
2022/08/02 09:39:00;;;;;;;5.28;1.58;;;;;;;25.69;65.12;101651.00;5095350;28;20375;-63
2022/08/02 09:41:30;;;;;;;6.22;1.80;;;;;;;25.81;63.31;101645.66;5118798;27;20054;-61
2022/08/02 09:43:57;;;;;;;2.58;1.70;;;;;;;25.83;63.15;101657.84;5082114;28;20397;-62
2022/08/02 09:46:40;;;;;;;5.30;2.28;;;;;;;25.92;63.20;101653.00;5087780;28;20053;-60
2022/08/02 09:49:18;;;;;;;3.05;1.92;;;;;;;26.10;65.27;101641.34;5099746;28;20052;-59
2022/08/02 09:51:48;;;;;;;3.30;1.60;;;;;;;26.42;66.32;101651.81;5090308;28;20054;-60
2022/08/02 09:54:27;;;;;;;5.28;2.08;;;;;;;26.37;63.97;101649.81;5101873;28;20342;-61
2022/08/02 09:56:58;;;;;;;2.10;1.35;;;;;;;26.57;64.52;101648.66;5090039;28;20043;-62
2022/08/02 09:59:26;;;;;;;3.45;1.98;;;;;;;26.66;66.16;101641.94;5105432;27;20059;-60
2022/08/02 10:01:54;;;;;;;2.70;1.90;;;;;;;26.81;64.51;101641.44;5115880;27;20065;-60
2022/08/02 10:04:31;;;;;;;3.97;1.55;;;;;;;26.97;64.17;101640.72;5113601;27;20388;-60
2022/08/02 10:07:19;;;;;;;3.65;1.65;;;;;;;27.11;64.81;101640.47;5101946;27;20466;-60
2022/08/02 10:09:48;;;;;;;4.05;1.90;;;;;;;26.93;63.38;101652.19;5106195;27;20047;-61
2022/08/02 10:12:15;;;;;;;2.05;1.60;;;;;;;26.86;64.03;101652.31;5105453;27;20460;-61
2022/08/02 10:14:42;;;;;;;2.60;1.63;;;;;;;26.88;63.15;101646.72;5101346;27;20054;-62
2022/08/02 10:17:09;;;;;;;2.78;1.55;;;;;;;27.23;64.74;101642.09;5118085;27;20047;-60
2022/08/02 10:19:36;;;;;;;3.08;1.20;;;;;;;27.48;64.99;101653.63;5098534;27;20450;-61
2022/08/02 10:22:23;;;;;;;4.18;1.60;;;;;;;27.31;62.79;101642.81;5105552;27;20514;-61
2022/08/02 10:24:50;;;;;;;2.90;1.23;;;;;;;27.69;63.56;101652.16;5096946;27;20051;-60
2022/08/02 10:27:18;;;;;;;2.92;1.58;;;;;;;27.73;63.04;101646.03;5121086;27;20047;-61
2022/08/02 10:29:49;;;;;;;2.83;1.48;;;;;;;27.53;63.17;101649.16;5107229;27;20083;-59
2022/08/02 10:32:31;;;;;;;2.38;1.55;;;;;;;27.76;63.60;101652.84;5098508;28;20069;-61
2022/08/02 10:35:12;;;;;;;2.85;1.52;;;;;;;27.94;64.97;101643.75;5097913;27;20054;-61
2022/08/02 10:38:06;;;;;;;2.65;1.58;;;;;;;27.75;63.70;101653.88;5101556;27;20499;-61
2022/08/02 10:40:53;;;;;;;2.10;1.35;;;;;;;27.70;64.71;101643.84;5107680;27;20574;-61
2022/08/02 10:43:35;;;;;;;2.17;1.48;;;;;;;27.58;64.09;101646.56;5106976;27;20073;-61
2022/08/02 10:46:26;;;;;;;2.10;1.60;;;;;;;27.40;64.74;101647.56;5102103;28;20055;-61
2022/08/02 10:49:02;;;;;;;1.73;1.40;;;;;;;27.27;64.21;101642.47;5096112;27;20051;-61
2022/08/02 10:52:04;;;;;;;1.45;1.35;;;;;;;27.34;64.47;101634.22;5103072;27;20047;-60
2022/08/02 10:55:02;;;;;;;4.53;1.67;;;;;;;27.48;65.42;101634.75;5097631;27;20523;-61
2022/08/02 10:57:38;;;;;;;2.95;1.65;;;;;;;27.88;64.15;101642.84;5101640;28;20047;-60
2022/08/02 11:00:25;;;;;;;3.00;1.38;;;;;;;27.83;60.71;101636.50;5092831;28;20062;-59
2022/08/02 11:02:54;;;;;;;3.67;1.37;;;;;;;27.57;62.36;101633.34;5108825;27;20109;-61
2022/08/02 11:05:32;;;;;;;4.30;1.40;;;;;;;27.77;62.13;101631.00;5099361;27;20276;-61
2022/08/02 11:08:20;;;;;;;9.35;1.60;;;;;;;27.64;60.24;101628.63;5103846;27;20052;-60
2022/08/02 11:10:47;;;;;;;2.70;1.58;;;;;;;27.80;61.65;101635.94;5105721;27;20395;-60
2022/08/02 11:13:18;;;;;;;2.35;1.40;;;;;;;28.05;59.53;101625.84;5127087;27;20051;-59
2022/08/02 11:15:49;;;;;;;6.10;1.58;;;;;;;28.23;59.58;101630.19;5099486;27;20492;-60
2022/08/02 11:18:16;;;;;;;2.20;1.50;;;;;;;28.08;60.17;101625.38;5091041;27;20471;-60
2022/08/02 11:20:43;;;;;;;3.35;1.60;;;;;;;28.11;59.07;101625.72;5104917;27;20054;-61
2022/08/02 11:23:37;;;;;;;1.63;1.52;;;;;;;28.29;58.43;101621.13;5097591;27;20059;-61
2022/08/02 11:26:29;;;;;;;3.83;1.70;;;;;;;28.51;58.23;101626.63;5099816;28;20275;-60
2022/08/02 11:28:57;;;;;;;2.40;1.50;;;;;;;28.68;60.03;101630.13;5106059;27;20052;-61
2022/08/02 11:31:25;;;;;;;3.50;1.63;;;;;;;28.70;57.85;101632.56;5106598;27;20070;-60
2022/08/02 11:33:51;;;;;;;3.00;1.50;;;;;;;28.62;57.48;101628.41;5107931;27;20043;-61
2022/08/02 11:36:18;;;;;;;1.95;1.70;;;;;;;28.45;57.26;101632.97;5094053;28;20066;-60
2022/08/02 11:38:48;;;;;;;3.03;1.67;;;;;;;28.59;58.68;101618.09;5107255;27;20047;-60
2022/08/02 11:41:18;;;;;;;2.22;1.30;;;;;;;28.58;56.73;101627.28;5090708;28;20926;-59
2022/08/02 11:44:05;;;;;;;1.55;1.40;;;;;;;28.75;57.26;101619.13;5103551;27;20078;-59